createdAt,value
2023-03-22T00:01:56.213Z,32.80
2023-03-22T00:04:48.975Z,34.00
2023-03-22T00:07:43.617Z,30.00
2023-03-22T00:10:38.475Z,30.60
2023-03-22T00:13:31.577Z,28.20
2023-03-22T00:16:24.617Z,29.90
2023-03-22T00:19:17.804Z,30.40
2023-03-22T00:22:11.642Z,30.80
2023-03-22T00:25:04.570Z,31.90
2023-03-22T00:27:57.425Z,29.00
2023-03-22T00:30:56.941Z,29.40
2023-03-22T00:33:49.704Z,29.30
2023-03-22T00:36:22.319Z,29.10
2023-03-22T00:39:08.133Z,30.20
2023-03-22T00:42:01.491Z,30.40
2023-03-22T00:44:54.237Z,25.70
2023-03-22T00:47:46.998Z,25.20
2023-03-22T00:50:41.196Z,25.00
2023-03-22T00:53:36.660Z,28.00
2023-03-22T00:56:29.061Z,25.70
2023-03-22T00:59:28.873Z,28.60
2023-03-22T01:02:42.566Z,42.00
2023-03-22T01:05:36.277Z,37.90
2023-03-22T01:08:34.564Z,31.50
2023-03-22T01:11:28.627Z,29.40
2023-03-22T01:14:21.984Z,37.80
2023-03-22T01:17:14.293Z,39.00
2023-03-22T01:20:01.056Z,38.70
2023-03-22T01:22:54.121Z,38.30
2023-03-22T01:25:46.905Z,36.70
2023-03-22T01:28:40.779Z,36.80
2023-03-22T01:31:34.278Z,37.40
2023-03-22T01:34:27.124Z,33.80
2023-03-22T01:37:25.609Z,35.50
2023-03-22T01:40:18.433Z,33.50
2023-03-22T01:43:17.328Z,35.00
2023-03-22T01:46:10.710Z,31.70
2023-03-22T01:49:06.301Z,32.10
2023-03-22T01:52:03.490Z,32.60
2023-03-22T01:55:02.715Z,31.20
2023-03-22T01:58:00.229Z,29.10
2023-03-22T02:00:54.571Z,31.70
2023-03-22T02:04:02.239Z,29.00
2023-03-22T02:06:57.215Z,29.80
2023-03-22T02:09:50.033Z,29.80
2023-03-22T02:12:45.386Z,29.10
2023-03-22T02:15:39.003Z,29.60
2023-03-22T02:19:00.536Z,27.60
2023-03-22T02:22:22.958Z,27.10
2023-03-22T02:25:42.854Z,26.90
2023-03-22T02:28:45.121Z,27.20
2023-03-22T02:32:05.609Z,26.20
2023-03-22T02:35:21.341Z,26.60
2023-03-22T02:38:29.457Z,26.80
2023-03-22T02:41:16.272Z,29.20
2023-03-22T02:44:18.556Z,31.30
2023-03-22T02:47:23.670Z,29.20
2023-03-22T02:50:15.360Z,27.90
2023-03-22T02:53:18.266Z,30.40
2023-03-22T02:56:07.113Z,29.30
2023-03-22T02:58:46.202Z,30.40
2023-03-22T03:01:43.866Z,29.50
2023-03-22T03:04:41.286Z,29.90
2023-03-22T03:07:27.680Z,29.90
2023-03-22T03:10:24.914Z,32.30
2023-03-22T03:13:19.670Z,31.90
2023-03-22T03:16:08.436Z,33.60
2023-03-22T03:19:00.610Z,33.10
2023-03-22T03:22:02.382Z,33.20
2023-03-22T03:25:04.131Z,30.50
2023-03-22T03:28:04.946Z,31.30
2023-03-22T03:31:04.902Z,30.30
2023-03-22T03:34:06.726Z,30.10
2023-03-22T03:36:54.802Z,30.20
2023-03-22T03:39:45.958Z,27.10
2023-03-22T03:42:39.132Z,27.70
2023-03-22T03:45:33.693Z,27.10
2023-03-22T03:48:28.875Z,26.80
2023-03-22T03:51:22.226Z,24.70
2023-03-22T03:54:15.474Z,25.90
2023-03-22T03:57:08.634Z,28.10
2023-03-22T04:00:01.689Z,28.60
2023-03-22T04:02:58.184Z,28.20
2023-03-22T04:05:56.016Z,26.10
2023-03-22T04:08:53.944Z,24.90
2023-03-22T04:11:47.307Z,27.10
2023-03-22T04:14:41.835Z,27.10
2023-03-22T04:17:34.905Z,27.80
2023-03-22T04:20:30.222Z,28.30
2023-03-22T04:23:23.300Z,25.60
2023-03-22T04:26:11.379Z,25.80
2023-03-22T04:29:04.730Z,27.80
2023-03-22T04:31:59.177Z,25.30
2023-03-22T04:34:52.403Z,26.20
2023-03-22T04:37:45.861Z,26.50
2023-03-22T04:40:39.335Z,27.30
2023-03-22T04:43:35.058Z,28.40
2023-03-22T04:46:28.229Z,30.40
2023-03-22T04:49:21.265Z,29.10
2023-03-22T04:52:14.655Z,27.60
2023-03-22T04:55:08.523Z,25.40
2023-03-22T04:58:01.780Z,23.50
2023-03-22T05:00:55.795Z,22.10
2023-03-22T05:03:49.042Z,23.30
2023-03-22T05:06:42.020Z,22.00
2023-03-22T05:09:35.068Z,22.50
2023-03-22T05:12:28.844Z,20.60
2023-03-22T05:15:21.968Z,19.90
2023-03-22T05:18:15.881Z,19.10
2023-03-22T05:21:13.878Z,18.00
2023-03-22T05:24:07.455Z,18.10
2023-03-22T05:27:03.782Z,17.50
2023-03-22T05:29:56.840Z,18.00
2023-03-22T05:32:37.736Z,17.20
2023-03-22T05:35:21.064Z,17.40
2023-03-22T05:38:14.034Z,17.70
2023-03-22T05:40:54.854Z,17.70
2023-03-22T05:43:27.871Z,18.30
2023-03-22T05:46:20.792Z,18.30
2023-03-22T05:49:16.379Z,19.80
2023-03-22T05:52:00.168Z,17.90
2023-03-22T05:54:53.468Z,18.10
2023-03-22T05:57:47.793Z,18.00
2023-03-22T06:00:35.872Z,17.00
2023-03-22T06:03:46.863Z,16.70
2023-03-22T06:06:39.796Z,16.70
2023-03-22T06:09:32.674Z,17.30
2023-03-22T06:12:27.744Z,17.00
2023-03-22T06:15:27.815Z,15.50
2023-03-22T06:18:29.647Z,15.20
2023-03-22T06:21:22.801Z,15.20
2023-03-22T06:24:18.012Z,16.00
2023-03-22T06:27:20.438Z,13.70
2023-03-22T06:31:01.578Z,13.30
2023-03-22T06:33:12.612Z,13.50
2023-03-22T06:35:50.322Z,14.60
2023-03-22T06:38:41.965Z,16.40
2023-03-22T06:41:36.764Z,16.80
2023-03-22T06:44:23.152Z,15.80
2023-03-22T06:46:56.669Z,14.70
2023-03-22T06:49:48.189Z,14.70
2023-03-22T06:52:41.116Z,15.70
2023-03-22T06:55:34.999Z,15.50
2023-03-22T06:58:30.236Z,16.00
2023-03-22T07:01:23.450Z,16.30
2023-03-22T07:04:01.916Z,17.70
2023-03-22T07:06:55.724Z,17.80
2023-03-22T07:09:49.288Z,16.40
2023-03-22T07:12:42.543Z,16.80
2023-03-22T07:15:35.648Z,17.50
2023-03-22T07:18:29.780Z,18.00
2023-03-22T07:21:22.695Z,18.70
2023-03-22T07:24:15.988Z,15.10
2023-03-22T07:27:09.567Z,13.50
2023-03-22T07:30:02.618Z,15.40
2023-03-22T07:32:56.737Z,16.40
2023-03-22T07:35:43.944Z,17.70
2023-03-22T07:38:27.562Z,15.40
2023-03-22T07:41:20.752Z,15.10
2023-03-22T07:44:18.077Z,17.40
2023-03-22T07:47:15.297Z,16.80
2023-03-22T07:50:08.495Z,17.10
2023-03-22T07:53:01.658Z,16.60
2023-03-22T07:55:55.062Z,17.10
2023-03-22T07:58:43.207Z,16.90
2023-03-22T08:01:27.762Z,16.10
2023-03-22T08:04:35.739Z,16.50
2023-03-22T08:07:41.270Z,14.90
2023-03-22T08:10:34.194Z,15.60
2023-03-22T08:13:07.032Z,15.40
2023-03-22T08:15:46.046Z,14.80
2023-03-22T08:18:30.657Z,14.10
2023-03-22T08:21:13.822Z,14.30
2023-03-22T08:24:07.613Z,14.70
2023-03-22T08:27:06.699Z,13.20
2023-03-22T08:29:59.128Z,13.50
2023-03-22T08:32:52.030Z,14.10
2023-03-22T08:35:35.242Z,15.20
2023-03-22T08:38:22.285Z,13.30
2023-03-22T08:41:16.048Z,13.00
2023-03-22T08:43:58.057Z,14.90
2023-03-22T08:46:51.481Z,13.40
2023-03-22T08:49:24.759Z,13.00
2023-03-22T08:52:14.606Z,12.30
2023-03-22T08:55:17.744Z,12.60
2023-03-22T08:58:11.377Z,12.60
2023-03-22T09:01:04.431Z,12.60
2023-03-22T09:03:57.850Z,13.50
2023-03-22T09:06:51.250Z,13.70
2023-03-22T09:09:44.181Z,13.40
2023-03-22T09:12:29.845Z,14.70
2023-03-22T09:15:03.370Z,13.90
2023-03-22T09:17:39.912Z,14.10
2023-03-22T09:20:33.272Z,14.20
2023-03-22T09:23:26.575Z,13.60
2023-03-22T09:26:20.094Z,15.00
2023-03-22T09:29:13.141Z,14.50
2023-03-22T09:32:06.684Z,13.00
2023-03-22T09:34:59.866Z,12.80
2023-03-22T09:37:54.720Z,12.80
2023-03-22T09:41:00.717Z,12.80
2023-03-22T09:43:56.498Z,12.80
2023-03-22T09:46:46.379Z,13.40
2023-03-22T09:49:24.338Z,12.90
2023-03-22T09:51:58.002Z,12.80
2023-03-22T09:54:52.908Z,13.30
2023-03-22T09:57:33.847Z,14.30
2023-03-22T10:00:34.726Z,14.00
2023-03-22T10:03:46.295Z,13.00
2023-03-22T10:06:22.568Z,12.40
2023-03-22T10:09:24.381Z,13.60
2023-03-22T10:12:25.481Z,12.00
2023-03-22T10:15:23.599Z,11.60
2023-03-22T10:18:20.974Z,12.30
2023-03-22T10:21:17.056Z,11.10
2023-03-22T10:24:02.537Z,11.30
2023-03-22T10:26:59.617Z,11.30
2023-03-22T10:29:56.980Z,10.80
2023-03-22T10:32:58.316Z,11.40
2023-03-22T10:35:53.082Z,11.40
2023-03-22T10:38:31.826Z,11.40
2023-03-22T10:41:06.814Z,8.50
2023-03-22T10:46:30.241Z,10.00
2023-03-22T10:49:04.573Z,10.00
2023-03-22T10:52:03.471Z,8.80
2023-03-22T10:55:01.356Z,9.10
2023-03-22T10:58:11.976Z,7.00
2023-03-22T11:03:33.082Z,7.30
2023-03-22T11:06:18.805Z,7.50
2023-03-22T11:08:53.419Z,7.20
2023-03-22T11:11:47.671Z,7.00
2023-03-22T11:14:46.096Z,7.00
2023-03-22T11:17:28.684Z,6.10
2023-03-22T11:20:23.117Z,6.60
2023-03-22T11:23:21.693Z,6.40
2023-03-22T11:26:10.772Z,6.30
2023-03-22T11:29:12.777Z,6.10
2023-03-22T11:32:01.561Z,6.70
2023-03-22T11:35:03.873Z,7.00
2023-03-22T11:37:58.035Z,6.80
2023-03-22T11:40:55.201Z,6.00
2023-03-22T11:43:53.912Z,5.00
2023-03-22T11:46:56.104Z,4.70
2023-03-22T11:49:48.818Z,5.10
2023-03-22T11:52:48.635Z,4.50
2023-03-22T11:55:36.068Z,5.30
2023-03-22T11:58:45.349Z,5.50
2023-03-22T12:01:43.243Z,5.40
2023-03-22T12:07:32.998Z,5.10
2023-03-22T12:10:31.804Z,4.80
2023-03-22T12:13:30.161Z,5.00
2023-03-22T12:16:28.484Z,4.50
2023-03-22T12:19:36.905Z,5.50
2023-03-22T12:22:33.641Z,5.50
2023-03-22T12:25:18.908Z,5.30
2023-03-22T12:28:03.670Z,5.10
2023-03-22T12:33:54.791Z,5.10
2023-03-22T12:36:51.752Z,4.70
2023-03-22T12:39:51.968Z,4.30
2023-03-22T12:42:51.164Z,4.70
2023-03-22T12:45:49.261Z,4.00
2023-03-22T12:48:48.574Z,4.50
2023-03-22T12:51:21.618Z,4.30
2023-03-22T12:53:57.593Z,4.50
2023-03-22T12:56:38.261Z,5.10
2023-03-22T12:59:20.229Z,4.50
2023-03-22T13:02:00.377Z,4.20
2023-03-22T13:04:53.655Z,4.50
2023-03-22T13:07:41.251Z,4.10
2023-03-22T13:10:56.218Z,4.50
2023-03-22T13:13:49.656Z,4.30
2023-03-22T13:16:43.759Z,4.60
2023-03-22T13:19:31.785Z,4.90
2023-03-22T13:22:30.741Z,4.20
2023-03-22T13:25:31.890Z,4.10
2023-03-22T13:28:26.576Z,4.60
2023-03-22T13:31:02.900Z,4.30
2023-03-22T13:33:38.865Z,4.50
2023-03-22T13:36:29.398Z,5.00
2023-03-22T13:39:17.263Z,5.20
2023-03-22T13:42:19.464Z,4.80
2023-03-22T13:45:02.613Z,5.20
2023-03-22T13:47:47.409Z,4.60
2023-03-22T13:50:33.240Z,4.80
2023-03-22T13:53:33.946Z,4.70
2023-03-22T13:56:36.054Z,5.10
2023-03-22T13:59:13.081Z,4.50
2023-03-22T14:01:51.739Z,5.20
2023-03-22T14:04:39.616Z,5.50
2023-03-22T14:07:25.099Z,4.60
2023-03-22T14:10:01.708Z,5.00
2023-03-22T14:12:54.195Z,4.80
2023-03-22T14:15:51.298Z,5.10
2023-03-22T14:18:31.595Z,4.80
